createdAt,value
2017-04-17T00:00:00.786Z,1017.86
2017-04-17T00:01:22.924Z,1017.79
2017-04-17T00:02:45.372Z,1017.76
2017-04-17T00:04:07.203Z,1017.74
2017-04-17T00:05:28.791Z,1017.76
2017-04-17T00:06:50.988Z,1017.74
2017-04-17T00:08:13.204Z,1017.76
2017-04-17T00:09:34.741Z,1017.76
2017-04-17T00:10:56.899Z,1017.78
2017-04-17T00:12:19.049Z,1017.78
2017-04-17T00:13:41.677Z,1017.76
2017-04-17T00:15:03.568Z,1017.82
2017-04-17T00:16:25.779Z,1017.79
2017-04-17T00:17:47.939Z,1017.78
2017-04-17T00:19:10.639Z,1017.83
2017-04-17T00:20:32.160Z,1017.85
2017-04-17T00:21:54.008Z,1017.87
2017-04-17T00:23:16.467Z,1017.81
2017-04-17T00:24:38.887Z,1017.98
2017-04-17T00:26:00.065Z,1017.97
2017-04-17T00:27:21.904Z,1017.82
2017-04-17T00:28:44.071Z,1017.9
2017-04-17T00:30:06.837Z,1017.81
2017-04-17T00:31:29.507Z,1017.79
2017-04-17T00:32:51.322Z,1017.79
2017-04-17T00:34:12.847Z,1017.76
2017-04-17T00:35:35.940Z,1017.76
2017-04-17T00:36:58.414Z,1017.77
2017-04-17T00:38:20.997Z,1017.74
2017-04-17T00:39:43.132Z,1017.68
2017-04-17T00:41:05.957Z,1017.75
2017-04-17T00:42:27.773Z,1017.72
2017-04-17T00:43:49.920Z,1017.67
2017-04-17T00:45:11.435Z,1017.67
2017-04-17T00:46:33.911Z,1017.65
2017-04-17T00:47:55.478Z,1017.66
2017-04-17T00:49:17.651Z,1017.64
2017-04-17T00:50:39.487Z,1017.63
2017-04-17T00:52:01.292Z,1017.64
2017-04-17T00:53:23.435Z,1017.62
2017-04-17T00:54:45.357Z,1017.64
2017-04-17T00:56:07.176Z,1017.63
2017-04-17T00:57:29.329Z,1017.65
2017-04-17T00:58:51.781Z,1017.61
2017-04-17T01:00:13.619Z,1017.62
2017-04-17T01:01:35.510Z,1017.56
2017-04-17T01:02:58.111Z,1017.56
2017-04-17T01:04:20.288Z,1017.58
2017-04-17T01:05:42.270Z,1017.56
2017-04-17T01:07:04.164Z,1017.55
2017-04-17T01:08:26.758Z,1017.55
2017-04-17T01:09:48.606Z,1017.52
2017-04-17T01:11:10.517Z,1017.52
2017-04-17T01:12:33.091Z,1017.55
2017-04-17T01:13:55.280Z,1017.57
2017-04-17T01:15:16.483Z,1017.52
2017-04-17T01:16:37.992Z,1017.5
2017-04-17T01:17:59.828Z,1017.46
2017-04-17T01:19:22.436Z,1017.41
2017-04-17T01:20:44.569Z,1017.42
2017-04-17T01:22:06.729Z,1017.42
2017-04-17T01:23:28.578Z,1017.39
2017-04-17T01:24:50.767Z,1017.39
2017-04-17T01:26:12.399Z,1017.39
2017-04-17T01:27:34.742Z,1017.4
2017-04-17T01:28:56.925Z,1017.37
2017-04-17T01:30:18.998Z,1017.36
2017-04-17T01:31:41.160Z,1017.4
2017-04-17T01:33:03.612Z,1017.37
2017-04-17T01:34:25.137Z,1017.35
2017-04-17T01:35:46.578Z,1017.34
2017-04-17T01:37:08.741Z,1017.34
2017-04-17T01:38:30.248Z,1017.33
2017-04-17T01:39:52.072Z,1017.38
2017-04-17T01:41:14.271Z,1017.36
2017-04-17T01:42:36.423Z,1017.35
2017-04-17T01:43:58.895Z,1017.41
2017-04-17T01:45:21.048Z,1017.41
2017-04-17T01:46:43.128Z,1017.48
2017-04-17T01:48:04.641Z,1017.44
2017-04-17T01:49:26.162Z,1017.45
2017-04-17T01:50:48.751Z,1017.44
2017-04-17T01:52:11.138Z,1017.44
2017-04-17T01:53:33.294Z,1017.44
2017-04-17T01:54:55.444Z,1017.45
2017-04-17T01:56:17.893Z,1017.39
2017-04-17T01:57:39.700Z,1017.4
2017-04-17T01:59:01.341Z,1017.42
2017-04-17T02:00:22.854Z,1017.4
2017-04-17T02:01:45.358Z,1017.31
2017-04-17T02:03:08.066Z,1017.36
2017-04-17T02:04:30.540Z,1017.31
2017-04-17T02:05:52.920Z,1017.27
2017-04-17T02:07:15.061Z,1017.24
2017-04-17T02:08:36.919Z,1017.3
2017-04-17T02:09:58.441Z,1017.27
2017-04-17T02:11:20.273Z,1017.27
2017-04-17T02:12:42.109Z,1017.31
2017-04-17T02:14:04.360Z,1017.25
2017-04-17T02:15:26.498Z,1017.24
2017-04-17T02:16:48.396Z,1017.26
2017-04-17T02:18:09.897Z,1017.25
2017-04-17T02:19:32.127Z,1017.24
2017-04-17T02:20:54.020Z,1017.22
2017-04-17T02:22:15.835Z,1017.25
2017-04-17T02:23:37.981Z,1017.28
2017-04-17T02:25:00.692Z,1017.21
2017-04-17T02:26:22.823Z,1017.19
2017-04-17T02:27:44.670Z,1017.19
2017-04-17T02:29:06.206Z,1017.22
2017-04-17T02:30:28.285Z,1017.24
2017-04-17T02:31:50.418Z,1017.19
2017-04-17T02:33:12.249Z,1017.21
2017-04-17T02:34:34.095Z,1017.16
2017-04-17T02:35:55.917Z,1017.21
2017-04-17T02:37:18.082Z,1017.17
2017-04-17T02:38:39.949Z,1017.18
2017-04-17T02:40:02.087Z,1017.19
2017-04-17T02:41:23.943Z,1017.19
2017-04-17T02:42:46.116Z,1017.11
2017-04-17T02:44:08.407Z,1017.09
2017-04-17T02:45:30.251Z,1017.17
2017-04-17T02:46:52.458Z,1017.12
2017-04-17T02:48:14.372Z,1017.12
2017-04-17T02:49:35.898Z,1017.15
2017-04-17T02:50:58.054Z,1017.13
2017-04-17T02:52:20.283Z,1017.16
2017-04-17T02:53:42.752Z,1017.17
2017-04-17T02:55:04.596Z,1017.18
2017-04-17T02:56:26.612Z,1017.17
2017-04-17T02:57:48.116Z,1017.18
2017-04-17T02:59:09.938Z,1017.2
2017-04-17T03:00:31.465Z,1017.14
2017-04-17T03:01:53.912Z,1017.07
2017-04-17T03:03:16.655Z,1017.15
2017-04-17T03:04:39.134Z,1017.12
2017-04-17T03:06:00.697Z,1017.13
2017-04-17T03:07:22.887Z,1017.12
2017-04-17T03:08:44.650Z,1017.11
2017-04-17T03:10:06.487Z,1017.14
2017-04-17T03:11:28.635Z,1017.09
2017-04-17T03:12:50.144Z,1017.11
2017-04-17T03:14:11.997Z,1017.12
2017-04-17T03:15:34.147Z,1017.11
2017-04-17T03:16:55.656Z,1017.12
2017-04-17T03:18:17.172Z,1017.09
2017-04-17T03:19:39.962Z,1017.1
2017-04-17T03:21:01.472Z,1017.08
2017-04-17T03:22:23.671Z,1017.12
2017-04-17T03:23:45.169Z,1017.03
2017-04-17T03:25:07.275Z,1017.12
2017-04-17T03:26:29.085Z,1017.08
2017-04-17T03:27:51.237Z,1017.16
2017-04-17T03:29:13.485Z,1017.1
2017-04-17T03:30:35.410Z,1017.09
2017-04-17T03:31:57.933Z,1017.12
2017-04-17T03:33:19.172Z,1017.12
2017-04-17T03:34:41.007Z,1017.12
2017-04-17T03:36:03.419Z,1017.06
2017-04-17T03:37:24.607Z,1017.08
2017-04-17T03:38:46.752Z,1017.06
2017-04-17T03:40:08.296Z,1017.06
2017-04-17T03:41:30.055Z,1017.13
2017-04-17T03:42:52.567Z,1017.13
2017-04-17T03:44:14.438Z,1017.06
2017-04-17T03:45:36.916Z,1017.1
2017-04-17T03:46:59.327Z,1017.09
2017-04-17T03:48:20.197Z,1017.08
2017-04-17T03:49:42.697Z,1017.08
2017-04-17T03:51:04.961Z,1017.06
2017-04-17T03:52:27.217Z,1017.06
2017-04-17T03:53:49.088Z,1017.04
2017-04-17T03:55:10.911Z,1017.05
2017-04-17T03:56:33.046Z,1017.02
2017-04-17T03:57:55.478Z,1017.03
2017-04-17T03:59:17.616Z,1017.01
2017-04-17T04:00:39.111Z,1017.02
2017-04-17T04:02:01.709Z,1017.02
2017-04-17T04:03:23.576Z,1017.03
2017-04-17T04:04:44.823Z,1017.04
2017-04-17T04:06:06.387Z,1017.01
2017-04-17T04:07:27.646Z,1017.06
2017-04-17T04:08:49.426Z,1017.04
2017-04-17T04:10:11.568Z,1017.04
2017-04-17T04:11:33.394Z,1017.03
2017-04-17T04:12:55.847Z,1017.05
2017-04-17T04:14:17.622Z,1016.97
2017-04-17T04:15:39.903Z,1017
2017-04-17T04:17:01.844Z,1016.98
2017-04-17T04:18:23.380Z,1016.97
2017-04-17T04:19:45.468Z,1016.99
2017-04-17T04:21:06.983Z,1016.94
2017-04-17T04:22:29.427Z,1016.94
2017-04-17T04:23:51.574Z,1016.96
2017-04-17T04:25:13.660Z,1016.93
2017-04-17T04:26:35.817Z,1016.94
2017-04-17T04:27:57.436Z,1016.94
2017-04-17T04:29:18.929Z,1016.94
2017-04-17T04:30:41.108Z,1016.95
2017-04-17T04:32:02.597Z,1016.93
2017-04-17T04:33:24.414Z,1016.95
2017-04-17T04:34:45.918Z,1016.92
2017-04-17T04:36:07.715Z,1016.95
2017-04-17T04:37:29.545Z,1016.97
2017-04-17T04:38:51.767Z,1016.98
2017-04-17T04:40:13.988Z,1016.96
2017-04-17T04:41:36.120Z,1016.97
2017-04-17T04:42:58.564Z,1016.97
2017-04-17T04:44:20.403Z,1017
2017-04-17T04:45:42.519Z,1016.96
2017-04-17T04:47:04.596Z,1016.97
2017-04-17T04:48:26.110Z,1017.03
2017-04-17T04:49:47.949Z,1017.02
2017-04-17T04:51:10.098Z,1017.03
2017-04-17T04:52:32.950Z,1016.99
2017-04-17T04:53:55.420Z,1017.03
2017-04-17T04:55:17.286Z,1017.06
2017-04-17T04:56:39.127Z,1017.02
2017-04-17T04:58:01.520Z,1017.04
2017-04-17T04:59:22.960Z,1017.05
2017-04-17T05:00:45.113Z,1017.08
2017-04-17T05:02:06.315Z,1017.01
2017-04-17T05:03:28.156Z,1017.06
2017-04-17T05:04:50.412Z,1017.04
2017-04-17T05:06:12.316Z,1017.07
2017-04-17T05:07:34.131Z,1017
2017-04-17T05:08:56.379Z,1016.97
2017-04-17T05:10:18.837Z,1016.96
2017-04-17T05:11:40.693Z,1016.98
2017-04-17T05:13:02.508Z,1016.99
2017-04-17T05:14:24.779Z,1017.02
2017-04-17T05:15:46.589Z,1016.99
2017-04-17T05:17:08.733Z,1017
2017-04-17T05:18:30.727Z,1017.01
2017-04-17T05:19:52.902Z,1016.94
2017-04-17T05:21:14.426Z,1017
2017-04-17T05:22:36.583Z,1017
2017-04-17T05:23:58.736Z,1016.97
2017-04-17T05:25:20.241Z,1017
2017-04-17T05:26:42.737Z,1017.04
2017-04-17T05:28:04.558Z,1017.01
2017-04-17T05:29:26.719Z,1016.96
2017-04-17T05:30:49.475Z,1017
2017-04-17T05:32:11.787Z,1017.02
2017-04-17T05:33:33.947Z,1017.01
2017-04-17T05:34:56.104Z,1017.01
2017-04-17T05:36:18.994Z,1017.03
2017-04-17T05:37:40.819Z,1017.07
2017-04-17T05:39:02.995Z,1017.03
2017-04-17T05:40:24.508Z,1017.06
2017-04-17T05:41:46.759Z,1017.07
2017-04-17T05:43:09.257Z,1017.02
2017-04-17T05:44:31.087Z,1017.04
2017-04-17T05:45:52.907Z,1017.02
2017-04-17T05:47:15.380Z,1017.03
2017-04-17T05:48:37.648Z,1017.05
2017-04-17T05:49:58.846Z,1017.05
2017-04-17T05:51:20.345Z,1017.09
2017-04-17T05:52:41.837Z,1017.19
2017-04-17T05:54:04.015Z,1017.13
2017-04-17T05:55:25.535Z,1017.19
2017-04-17T05:56:47.667Z,1017.15
2017-04-17T05:58:09.541Z,1017.12
2017-04-17T05:59:31.365Z,1017.12
2017-04-17T06:00:53.329Z,1017.12
2017-04-17T06:02:14.940Z,1017.13
2017-04-17T06:03:37.137Z,1017.3
2017-04-17T06:04:59.715Z,1017.28
2017-04-17T06:06:22.207Z,1017.28
2017-04-17T06:07:44.071Z,1017.2
2017-04-17T06:09:06.317Z,1017.17
2017-04-17T06:10:28.238Z,1017.25
2017-04-17T06:11:50.395Z,1017.29
2017-04-17T06:13:12.057Z,1017.27
2017-04-17T06:14:34.836Z,1017.31
2017-04-17T06:15:57.187Z,1017.33
2017-04-17T06:17:19.021Z,1017.39
2017-04-17T06:18:40.688Z,1017.6
2017-04-17T06:20:03.002Z,1017.51
2017-04-17T06:21:24.225Z,1017.48
2017-04-17T06:22:46.370Z,1017.64
2017-04-17T06:24:08.210Z,1017.67
2017-04-17T06:25:29.998Z,1017.71
2017-04-17T06:26:51.828Z,1017.64
2017-04-17T06:28:13.661Z,1017.5
2017-04-17T06:29:35.519Z,1017.73
2017-04-17T06:30:57.609Z,1017.66
2017-04-17T06:32:19.679Z,1017.49
2017-04-17T06:33:41.841Z,1017.64
2017-04-17T06:35:03.380Z,1017.7
2017-04-17T06:36:25.898Z,1017.59
2017-04-17T06:37:47.738Z,1017.5
2017-04-17T06:39:09.600Z,1017.44
2017-04-17T06:40:31.181Z,1017.45
2017-04-17T06:41:53.609Z,1017.44
2017-04-17T06:43:14.898Z,1017.39
2017-04-17T06:44:36.789Z,1017.4
2017-04-17T06:45:58.942Z,1017.43
2017-04-17T06:47:21.456Z,1017.43
2017-04-17T06:48:43.627Z,1017.44
2017-04-17T06:50:05.798Z,1017.74
2017-04-17T06:51:28.057Z,1017.72
2017-04-17T06:52:50.560Z,1017.47
2017-04-17T06:54:12.109Z,1017.51
2017-04-17T06:55:33.622Z,1017.76
2017-04-17T06:56:55.947Z,1017.66
2017-04-17T06:58:18.155Z,1017.77
2017-04-17T06:59:40.336Z,1017.54
2017-04-17T07:01:02.488Z,1017.51
2017-04-17T07:02:24.367Z,1017.52
2017-04-17T07:03:46.578Z,1017.5
2017-04-17T07:05:08.740Z,1017.51
2017-04-17T07:06:30.905Z,1017.52
2017-04-17T07:07:52.770Z,1017.57
2017-04-17T07:09:14.894Z,1017.59
2017-04-17T07:10:36.507Z,1017.63
2017-04-17T07:11:57.768Z,1017.6
2017-04-17T07:13:19.590Z,1017.63
2017-04-17T07:14:41.787Z,1017.6
2017-04-17T07:16:03.268Z,1017.55
2017-04-17T07:17:25.747Z,1017.48
2017-04-17T07:18:47.332Z,1017.52
2017-04-17T07:20:10.241Z,1017.5
2017-04-17T07:21:32.421Z,1017.53
2017-04-17T07:22:54.778Z,1017.5
2017-04-17T07:24:16.608Z,1017.59
2017-04-17T07:25:38.938Z,1017.86
2017-04-17T07:27:01.088Z,1017.97
2017-04-17T07:28:23.660Z,1017.83
2017-04-17T07:29:46.149Z,1017.75
2017-04-17T07:31:08.778Z,1017.76
2017-04-17T07:32:30.617Z,1017.94
2017-04-17T07:33:51.894Z,1017.9
2017-04-17T07:35:13.451Z,1017.93
2017-04-17T07:36:35.040Z,1017.98
2017-04-17T07:37:56.900Z,1017.9
2017-04-17T07:39:19.086Z,1017.91
2017-04-17T07:40:41.535Z,1017.68
2017-04-17T07:42:03.648Z,1017.86
2017-04-17T07:43:26.137Z,1018.12
2017-04-17T07:44:48.619Z,1017.89
2017-04-17T07:46:10.850Z,1017.73
2017-04-17T07:47:32.971Z,1017.8
2017-04-17T07:48:55.469Z,1017.86
2017-04-17T07:50:17.364Z,1017.83
2017-04-17T07:51:39.198Z,1017.77
2017-04-17T07:53:01.688Z,1017.77
2017-04-17T07:54:55.609Z,1017.8
2017-04-17T07:56:17.768Z,1017.79
2017-04-17T07:57:39.648Z,1017.7
2017-04-17T07:59:02.165Z,1017.68
2017-04-17T08:00:24.358Z,1017.63
2017-04-17T08:01:46.733Z,1017.58
2017-04-17T08:03:09.130Z,1017.54
2017-04-17T08:04:31.739Z,1017.59
2017-04-17T08:05:53.893Z,1017.64
2017-04-17T08:07:16.078Z,1017.61
2017-04-17T08:08:38.620Z,1017.58
2017-04-17T08:10:00.782Z,1017.52
2017-04-17T08:11:22.632Z,1017.51
2017-04-17T08:12:44.190Z,1017.5
2017-04-17T08:14:07.027Z,1017.46
2017-04-17T08:15:28.981Z,1017.47
2017-04-17T08:16:50.503Z,1017.44
2017-04-17T08:18:12.131Z,1017.4
2017-04-17T08:19:34.723Z,1017.42
2017-04-17T08:20:55.950Z,1017.44
2017-04-17T08:22:18.428Z,1017.41
2017-04-17T08:23:39.929Z,1017.39
2017-04-17T08:25:02.408Z,1017.36
2017-04-17T08:26:24.014Z,1017.38
2017-04-17T08:27:46.147Z,1017.44
2017-04-17T08:29:08.076Z,1017.43
2017-04-17T08:30:30.858Z,1017.45
2017-04-17T08:31:52.837Z,1017.51
2017-04-17T08:33:15.337Z,1017.53
2017-04-17T08:34:37.199Z,1017.49
2017-04-17T08:35:59.654Z,1017.48
2017-04-17T08:37:22.129Z,1017.56
2017-04-17T08:38:43.670Z,1017.69
2017-04-17T08:40:05.578Z,1017.57
2017-04-17T08:41:28.012Z,1017.56
2017-04-17T08:42:49.537Z,1017.57
2017-04-17T08:44:11.701Z,1017.65
2017-04-17T08:45:34.186Z,1017.6
2017-04-17T08:46:55.749Z,1017.58
2017-04-17T08:48:17.919Z,1017.65
2017-04-17T08:49:40.070Z,1017.7
2017-04-17T08:51:02.244Z,1017.75
2017-04-17T08:52:24.809Z,1017.68
2017-04-17T08:53:46.970Z,1017.66
2017-04-17T08:55:09.125Z,1017.61
2017-04-17T08:56:30.648Z,1017.67
2017-04-17T08:57:52.218Z,1017.64
2017-04-17T08:59:14.431Z,1017.68
2017-04-17T09:00:36.730Z,1017.73
2017-04-17T09:01:58.886Z,1017.7
2017-04-17T09:03:21.088Z,1017.7
2017-04-17T09:04:43.251Z,1017.68
2017-04-17T09:06:05.478Z,1017.68
2017-04-17T09:07:27.649Z,1017.67
2017-04-17T09:08:49.479Z,1017.76
2017-04-17T09:10:11.388Z,1017.79
2017-04-17T09:11:32.949Z,1017.79
2017-04-17T09:12:55.478Z,1017.72
2017-04-17T09:14:17.875Z,1017.69
2017-04-17T09:15:39.798Z,1017.64
2017-04-17T09:17:01.685Z,1017.66
2017-04-17T09:18:23.979Z,1017.61
2017-04-17T09:19:46.190Z,1017.57
2017-04-17T09:21:08.676Z,1017.55
2017-04-17T09:22:31.182Z,1017.56
2017-04-17T09:23:53.017Z,1017.5
2017-04-17T09:25:15.638Z,1017.54
2017-04-17T09:26:38.165Z,1017.51
2017-04-17T09:28:00.433Z,1017.48
2017-04-17T09:29:23.345Z,1017.5
2017-04-17T09:30:46.128Z,1017.49
2017-04-17T09:32:08.472Z,1017.43
2017-04-17T09:33:31.491Z,1017.43
2017-04-17T09:34:53.023Z,1017.47
2017-04-17T09:36:15.169Z,1017.44
2017-04-17T09:37:36.748Z,1017.4
2017-04-17T09:38:58.946Z,1017.33
2017-04-17T09:40:21.362Z,1017.34
2017-04-17T09:41:44.196Z,1017.4
2017-04-17T09:43:06.029Z,1017.34
2017-04-17T09:44:28.211Z,1017.32
2017-04-17T09:45:50.701Z,1017.34
2017-04-17T09:47:13.439Z,1017.31
2017-04-17T09:48:35.317Z,1017.45
2017-04-17T09:49:57.807Z,1017.51
2017-04-17T09:51:20.306Z,1017.49
2017-04-17T09:52:43.147Z,1017.4
2017-04-17T09:54:04.710Z,1017.42
2017-04-17T09:55:27.020Z,1017.44
2017-04-17T09:56:49.198Z,1017.36
2017-04-17T09:58:11.605Z,1017.42
2017-04-17T09:59:33.471Z,1017.42
2017-04-17T10:00:55.698Z,1017.48
2017-04-17T10:02:18.208Z,1017.44
2017-04-17T10:03:40.671Z,1017.42
2017-04-17T10:05:02.921Z,1017.35
2017-04-17T10:06:25.527Z,1017.32
2017-04-17T10:07:47.057Z,1017.29
2017-04-17T10:09:09.194Z,1017.31
2017-04-17T10:10:31.539Z,1017.36
2017-04-17T10:11:53.697Z,1017.37
2017-04-17T10:13:15.875Z,1017.43
2017-04-17T10:14:37.451Z,1017.47
2017-04-17T10:15:59.368Z,1017.51
2017-04-17T10:17:21.813Z,1017.41
2017-04-17T10:18:43.709Z,1017.4
2017-04-17T10:20:06.587Z,1017.34
2017-04-17T10:21:28.895Z,1017.31
2017-04-17T10:22:50.848Z,1017.36
2017-04-17T10:24:13.159Z,1017.33
2017-04-17T10:25:35.269Z,1017.27
2017-04-17T10:26:57.416Z,1017.28
2017-04-17T10:28:19.578Z,1017.24
2017-04-17T10:29:41.421Z,1017.28
2017-04-17T10:31:03.504Z,1017.29
2017-04-17T10:32:25.699Z,1017.52
2017-04-17T10:33:47.914Z,1017.47
2017-04-17T10:35:10.075Z,1017.45
2017-04-17T10:36:32.496Z,1017.47
2017-04-17T10:37:54.600Z,1017.34
2017-04-17T10:39:16.773Z,1017.33
2017-04-17T10:40:38.933Z,1017.35
2017-04-17T10:42:00.719Z,1017.31
2017-04-17T10:43:23.211Z,1017.4
2017-04-17T10:44:45.441Z,1017.59
2017-04-17T10:46:07.422Z,1017.51
2017-04-17T10:47:30.243Z,1017.54
2017-04-17T10:48:52.518Z,1017.57
2017-04-17T10:50:15.039Z,1017.55
2017-04-17T10:51:36.873Z,1017.52
2017-04-17T10:52:59.071Z,1017.47
2017-04-17T10:54:21.378Z,1017.44
2017-04-17T10:55:43.978Z,1017.38
2017-04-17T10:57:05.510Z,1017.4
2017-04-17T10:58:28.361Z,1017.41
2017-04-17T10:59:51.187Z,1017.46
2017-04-17T11:01:13.762Z,1017.56
2017-04-17T11:02:36.329Z,1017.5
2017-04-17T11:03:58.840Z,1017.44
2017-04-17T11:05:20.699Z,1017.36
2017-04-17T11:06:42.538Z,1017.36
2017-04-17T11:08:04.710Z,1017.43
2017-04-17T11:09:27.299Z,1017.39
2017-04-17T11:10:48.830Z,1017.56
2017-04-17T11:12:11.288Z,1017.46
2017-04-17T11:13:33.450Z,1017.4
2017-04-17T11:14:55.640Z,1017.44
2017-04-17T11:16:17.508Z,1017.35
2017-04-17T11:17:39.497Z,1017.38
2017-04-17T11:19:01.987Z,1017.31
2017-04-17T11:20:24.568Z,1017.34
2017-04-17T11:21:47.055Z,1017.28
2017-04-17T11:23:09.549Z,1017.29
2017-04-17T11:24:31.390Z,1017.28
2017-04-17T11:25:54.157Z,1017.28
2017-04-17T11:27:16.317Z,1017.34
2017-04-17T11:28:38.487Z,1017.33
2017-04-17T11:30:00.668Z,1017.23
2017-04-17T11:31:23.075Z,1017.31
2017-04-17T11:32:45.562Z,1017.36
2017-04-17T11:34:08.038Z,1017.31
2017-04-17T11:35:29.556Z,1017.3
2017-04-17T11:36:51.833Z,1017.3
2017-04-17T11:38:13.778Z,1017.31
2017-04-17T11:39:35.635Z,1017.33
2017-04-17T11:40:57.164Z,1017.29
2017-04-17T11:42:20.029Z,1017.3
2017-04-17T11:43:42.597Z,1017.32
2017-04-17T11:45:04.926Z,1017.34
2017-04-17T11:46:26.788Z,1017.37
2017-04-17T11:47:49.199Z,1017.47
2017-04-17T11:49:11.361Z,1017.43
2017-04-17T11:50:33.511Z,1017.37
2017-04-17T11:51:55.035Z,1017.36
2017-04-17T11:53:17.570Z,1017.42
2017-04-17T11:54:39.416Z,1017.48
2017-04-17T11:56:01.806Z,1017.48
2017-04-17T11:57:23.758Z,1017.44
2017-04-17T11:58:46.638Z,1017.39
2017-04-17T12:00:08.891Z,1017.43
2017-04-17T12:01:30.425Z,1017.51
2017-04-17T12:02:52.908Z,1017.44
2017-04-17T12:04:15.358Z,1017.56
2017-04-17T12:05:37.897Z,1017.59
2017-04-17T12:07:00.062Z,1017.55
2017-04-17T12:08:22.379Z,1017.54
2017-04-17T12:09:45.270Z,1017.56
2017-04-17T12:11:07.419Z,1017.54
2017-04-17T12:12:29.688Z,1017.54
2017-04-17T12:13:51.935Z,1017.47
2017-04-17T12:15:14.072Z,1017.4
2017-04-17T12:16:36.579Z,1017.42
2017-04-17T12:17:58.850Z,1017.38
2017-04-17T12:19:25.508Z,1017.35
2017-04-17T12:20:47.717Z,1017.37
2017-04-17T12:22:09.889Z,1017.4
2017-04-17T12:23:31.980Z,1017.4
2017-04-17T12:24:54.163Z,1017.4
2017-04-17T12:26:16.777Z,1017.33
2017-04-17T12:27:38.948Z,1017.42
2017-04-17T12:29:01.528Z,1017.45
2017-04-17T12:30:23.725Z,1017.5
2017-04-17T12:31:45.809Z,1017.49
2017-04-17T12:33:07.990Z,1017.46
2017-04-17T12:34:30.365Z,1017.43
2017-04-17T12:35:52.550Z,1017.35
2017-04-17T12:37:14.591Z,1017.43
2017-04-17T12:38:37.067Z,1017.44
2017-04-17T12:39:58.923Z,1017.42
2017-04-17T12:41:21.099Z,1017.39
2017-04-17T12:42:43.707Z,1017.43
2017-04-17T12:44:06.362Z,1017.43
2017-04-17T12:45:28.259Z,1017.34
2017-04-17T12:46:50.443Z,1017.54
2017-04-17T12:48:12.725Z,1017.53
2017-04-17T12:49:35.229Z,1017.45
2017-04-17T12:50:57.713Z,1017.48
2017-04-17T12:52:19.867Z,1017.39
2017-04-17T12:53:42.288Z,1017.45
2017-04-17T12:55:04.460Z,1017.46
2017-04-17T12:56:26.648Z,1017.5
2017-04-17T12:57:48.949Z,1017.43
2017-04-17T12:59:11.419Z,1017.5
2017-04-17T13:00:33.710Z,1017.5
2017-04-17T13:01:55.927Z,1017.57
2017-04-17T13:03:18.497Z,1017.49
2017-04-17T13:04:41.148Z,1017.5
2017-04-17T13:06:03.365Z,1017.52
2017-04-17T13:07:25.859Z,1017.5
2017-04-17T13:08:48.045Z,1017.49
2017-04-17T13:10:10.369Z,1017.48
2017-04-17T13:11:32.230Z,1017.47
2017-04-17T13:12:54.506Z,1017.56
2017-04-17T13:14:16.702Z,1017.5
2017-04-17T13:15:39.250Z,1017.51
2017-04-17T13:17:01.757Z,1017.59
2017-04-17T13:18:24.289Z,1017.6
2017-04-17T13:19:46.219Z,1017.58
2017-04-17T13:21:09.039Z,1017.52
2017-04-17T13:22:31.744Z,1017.48
2017-04-17T13:23:53.487Z,1017.49
2017-04-17T13:25:15.358Z,1017.44
2017-04-17T13:26:38.100Z,1017.44
2017-04-17T13:28:00.258Z,1017.64
2017-04-17T13:29:22.988Z,1017.61
2017-04-17T13:30:44.917Z,1017.65
2017-04-17T13:32:07.386Z,1017.7
2017-04-17T13:33:29.239Z,1017.59
2017-04-17T13:34:51.728Z,1017.55
2017-04-17T13:36:13.954Z,1017.5
2017-04-17T13:37:36.582Z,1017.49
2017-04-17T13:38:59.101Z,1017.51
2017-04-17T13:40:20.961Z,1017.43
2017-04-17T13:41:43.612Z,1017.49
2017-04-17T13:43:06.527Z,1017.5
2017-04-17T13:44:29.058Z,1017.44
2017-04-17T13:45:51.578Z,1017.46
2017-04-17T13:47:13.766Z,1017.54
2017-04-17T13:48:35.919Z,1017.61
2017-04-17T13:49:58.150Z,1017.59
2017-04-17T13:51:20.337Z,1017.67
2017-04-17T13:52:42.534Z,1017.62
2017-04-17T13:54:05.426Z,1017.62
2017-04-17T13:55:27.925Z,1017.61
2017-04-17T13:56:50.543Z,1017.68
2017-04-17T13:58:13.048Z,1017.66
2017-04-17T13:59:35.855Z,1017.64
2017-04-17T14:00:58.366Z,1017.63
2017-04-17T14:02:19.880Z,1017.64
2017-04-17T14:03:41.746Z,1017.62
2017-04-17T14:05:04.173Z,1017.52
2017-04-17T14:06:26.048Z,1017.64
2017-04-17T14:07:48.546Z,1017.65
2017-04-17T14:09:10.725Z,1017.63
2017-04-17T14:10:33.267Z,1017.56
2017-04-17T14:11:54.829Z,1017.56
2017-04-17T14:13:16.589Z,1017.56
2017-04-17T14:14:38.662Z,1017.57
2017-04-17T14:16:01.172Z,1017.56
2017-04-17T14:17:23.360Z,1017.59
2017-04-17T14:18:45.839Z,1017.59
2017-04-17T14:20:08.027Z,1017.58
2017-04-17T14:21:31.160Z,1017.54
2017-04-17T14:22:53.318Z,1017.56
2017-04-17T14:24:15.298Z,1017.63
2017-04-17T14:25:37.916Z,1017.66
2017-04-17T14:27:00.355Z,1017.6
2017-04-17T14:28:22.856Z,1017.62
2017-04-17T14:29:44.726Z,1017.64
2017-04-17T14:31:06.906Z,1017.61
2017-04-17T14:32:29.466Z,1017.47
2017-04-17T14:33:51.946Z,1017.55
2017-04-17T14:35:14.221Z,1017.52
2017-04-17T14:36:36.441Z,1017.52
2017-04-17T14:37:58.744Z,1017.46
2017-04-17T14:39:21.229Z,1017.57
2017-04-17T14:40:43.600Z,1017.66
2017-04-17T14:42:06.096Z,1017.61
2017-04-17T14:43:28.537Z,1017.54
2017-04-17T14:44:50.721Z,1017.58
2017-04-17T14:46:12.623Z,1017.56
2017-04-17T14:47:34.785Z,1017.65
2017-04-17T14:48:57.648Z,1017.7
2017-04-17T14:50:19.870Z,1017.64
2017-04-17T14:51:42.092Z,1017.57
2017-04-17T14:53:03.703Z,1017.46
2017-04-17T14:54:25.906Z,1017.6
2017-04-17T14:55:48.681Z,1017.71
2017-04-17T14:57:11.168Z,1017.58
2017-04-17T14:58:33.335Z,1017.59
2017-04-17T14:59:55.489Z,1017.56
2017-04-17T15:01:17.733Z,1017.7
2017-04-17T15:02:40.259Z,1017.71
2017-04-17T15:04:02.435Z,1017.61
2017-04-17T15:05:25.375Z,1017.5
2017-04-17T15:06:47.542Z,1017.63
2017-04-17T15:08:10.065Z,1017.53
2017-04-17T15:09:32.217Z,1017.5
2017-04-17T15:10:55.038Z,1017.51
2017-04-17T15:12:17.517Z,1017.54
2017-04-17T15:13:39.384Z,1017.7
2017-04-17T15:15:01.936Z,1017.7
2017-04-17T15:16:24.427Z,1017.54
2017-04-17T15:17:46.926Z,1017.66
2017-04-17T15:19:09.098Z,1017.77
2017-04-17T15:20:31.094Z,1017.69
2017-04-17T15:21:53.913Z,1017.74
2017-04-17T15:23:15.755Z,1017.87
2017-04-17T15:24:38.237Z,1017.8
2017-04-17T15:26:00.725Z,1017.72
2017-04-17T15:27:23.356Z,1017.76
2017-04-17T15:28:45.849Z,1017.75
2017-04-17T15:30:07.854Z,1017.96
2017-04-17T15:31:30.044Z,1017.91
2017-04-17T15:32:52.854Z,1017.93
2017-04-17T15:34:15.036Z,1017.99
2017-04-17T15:35:37.581Z,1017.85
2017-04-17T15:37:00.090Z,1017.92
2017-04-17T15:38:22.896Z,1018.02
2017-04-17T15:39:45.387Z,1017.83
2017-04-17T15:41:07.225Z,1017.77
2017-04-17T15:42:29.301Z,1017.87
2017-04-17T15:43:51.726Z,1017.78
2017-04-17T15:45:14.256Z,1017.97
2017-04-17T15:46:36.127Z,1017.73
2017-04-17T15:47:57.986Z,1017.75
2017-04-17T15:49:19.588Z,1017.83
2017-04-17T15:50:41.756Z,1017.77
2017-04-17T15:52:04.406Z,1017.86
2017-04-17T15:53:26.605Z,1017.75
2017-04-17T15:54:49.067Z,1017.79
2017-04-17T15:56:11.563Z,1017.81
2017-04-17T15:57:34.113Z,1017.8
2017-04-17T15:58:55.983Z,1017.85
2017-04-17T16:00:18.778Z,1017.75
2017-04-17T16:01:40.986Z,1017.88
2017-04-17T16:03:03.170Z,1017.83
2017-04-17T16:04:25.025Z,1017.84
2017-04-17T16:05:47.605Z,1017.83
2017-04-17T16:07:09.452Z,1017.89
2017-04-17T16:08:31.805Z,1017.93
2017-04-17T16:09:53.983Z,1017.98
2017-04-17T16:11:16.573Z,1017.89
2017-04-17T16:12:38.557Z,1017.96
2017-04-17T16:14:00.912Z,1018.01
2017-04-17T16:15:22.899Z,1017.96
2017-04-17T16:16:45.443Z,1017.98
2017-04-17T16:18:07.616Z,1018.03
2017-04-17T16:19:29.575Z,1017.98
2017-04-17T16:20:51.763Z,1018.04
2017-04-17T16:22:14.186Z,1017.98
2017-04-17T16:23:36.345Z,1018
2017-04-17T16:24:58.836Z,1017.96
2017-04-17T16:26:21.425Z,1017.97
2017-04-17T16:27:44.028Z,1017.94
2017-04-17T16:29:06.221Z,1017.96
2017-04-17T16:30:28.101Z,1017.99
2017-04-17T16:31:50.653Z,1018
2017-04-17T16:33:13.123Z,1018.03
2017-04-17T16:34:34.984Z,1017.99
2017-04-17T16:35:57.156Z,1017.99
2017-04-17T16:37:19.725Z,1018.08